Portada
METAR-TAF:

METAR-TAF

Aeroports :

Maputo, Moçambic

Aeroport Internacional de Maputo

latitud: 25-55S, longitud: 032-34E, altitud: 39 m

Observació

L'informe es va fer fa 1 hora i 9 minuts, a les 00:00 UTC
Vent 3 kt del Est/Nord-Est
Temperatura 21°C
Humitat 83%
Pressió 1012 hPa
Visibilitat 10 km o més
Escasses núvols a una alçada de 2000 ft

METAR: FQMA 200000Z 07003KT 9999 FEW020 21/18 Q1012 NOSIG

Hora: 03:09 (01:09 UTC)

Pronòstic

L'informe es va fer fa 15 hores i 9 minuts, a les 10:00 UTC
Pronòstic vàlid del 19 a les 12 UTC al 20 a les 18 UTC
Vent 10 kt del Est
Visibilitat 10 km o més
Escasses núvols a una alçada de 2000 ft
Evolucionant progressivament
l' 19 a les 18 UTC al 19 a les 20 UTC
Vent 12 kt del Sud-Oest
Evolucionant progressivament
l' 20 a les 06 UTC al 20 a les 08 UTC
Vent 11 kt del Nord/Nord-Oest

TAF: FQMA 191000Z 1912/2018 10010KT 9999 FEW020 BECMG 1918/1920 22012KT BECMG 2006/2008 34011KT TX31/1913Z TN23/2003Z

Observacions i pronòstics meteorològics de més de 4000 aeroports (METAR i TAF).

Les estacions disponibles són els punts grocs i vermells al mapa.

Posi el ratolí al punt desitjat per veure el nom de l'estació.

Feu clic per veure les observacions i els pronòstics meteorològics.

Per canviar el mapa: feu clic els botons verds amb una creu de color negre per apropar; al botó verd amb un guió per allunyar la imatge; o en les fletxes verdes per a mapes adjacents.


METAR-TAF: